sensor_id;sensor_type;location;lat;lon;timestamp;P1;durP1;ratioP1;P2;durP2;ratioP2
1366;SDS011;16877;48.810;9.282;2023-05-07T00:00:17;3.73;;;2.47;;
1366;SDS011;16877;48.810;9.282;2023-05-07T00:02:46;3.53;;;2.30;;
1366;SDS011;16877;48.810;9.282;2023-05-07T00:05:14;5.00;;;2.70;;
1366;SDS011;16877;48.810;9.282;2023-05-07T00:07:42;3.70;;;2.93;;
1366;SDS011;16877;48.810;9.282;2023-05-07T00:10:10;3.30;;;2.60;;
1366;SDS011;16877;48.810;9.282;2023-05-07T00:12:37;4.80;;;2.40;;
1366;SDS011;16877;48.810;9.282;2023-05-07T00:15:05;3.77;;;2.70;;
1366;SDS011;16877;48.810;9.282;2023-05-07T00:17:34;4.13;;;2.90;;
1366;SDS011;16877;48.810;9.282;2023-05-07T00:20:03;4.13;;;2.50;;
1366;SDS011;16877;48.810;9.282;2023-05-07T00:22:32;3.03;;;2.30;;
1366;SDS011;16877;48.810;9.282;2023-05-07T00:24:59;3.90;;;2.70;;
1366;SDS011;16877;48.810;9.282;2023-05-07T00:27:26;3.87;;;2.77;;
1366;SDS011;16877;48.810;9.282;2023-05-07T00:29:54;3.80;;;2.60;;
1366;SDS011;16877;48.810;9.282;2023-05-07T00:32:21;3.40;;;2.40;;
1366;SDS011;16877;48.810;9.282;2023-05-07T00:34:49;3.40;;;2.30;;
1366;SDS011;16877;48.810;9.282;2023-05-07T00:37:33;5.17;;;2.50;;
1366;SDS011;16877;48.810;9.282;2023-05-07T00:40:01;5.13;;;2.50;;
1366;SDS011;16877;48.810;9.282;2023-05-07T00:42:32;3.17;;;2.00;;
1366;SDS011;16877;48.810;9.282;2023-05-07T00:44:59;3.87;;;2.90;;
1366;SDS011;16877;48.810;9.282;2023-05-07T00:47:27;3.93;;;2.70;;
1366;SDS011;16877;48.810;9.282;2023-05-07T00:49:55;4.90;;;2.93;;
1366;SDS011;16877;48.810;9.282;2023-05-07T00:52:24;3.30;;;2.33;;
1366;SDS011;16877;48.810;9.282;2023-05-07T00:54:54;3.00;;;2.30;;
1366;SDS011;16877;48.810;9.282;2023-05-07T00:57:22;3.50;;;2.40;;
1366;SDS011;16877;48.810;9.282;2023-05-07T00:59:51;4.17;;;2.70;;
1366;SDS011;16877;48.810;9.282;2023-05-07T01:02:19;4.73;;;2.60;;
1366;SDS011;16877;48.810;9.282;2023-05-07T01:04:46;4.20;;;2.17;;
1366;SDS011;16877;48.810;9.282;2023-05-07T01:07:13;4.90;;;2.50;;
1366;SDS011;16877;48.810;9.282;2023-05-07T01:09:41;3.10;;;2.37;;
1366;SDS011;16877;48.810;9.282;2023-05-07T01:12:10;3.37;;;2.90;;
1366;SDS011;16877;48.810;9.282;2023-05-07T01:14:38;6.60;;;2.70;;
1366;SDS011;16877;48.810;9.282;2023-05-07T01:17:05;5.40;;;2.83;;
1366;SDS011;16877;48.810;9.282;2023-05-07T01:19:33;4.17;;;3.00;;
1366;SDS011;16877;48.810;9.282;2023-05-07T01:22:02;3.93;;;2.63;;
1366;SDS011;16877;48.810;9.282;2023-05-07T01:24:35;5.10;;;2.63;;
1366;SDS011;16877;48.810;9.282;2023-05-07T01:27:04;3.80;;;2.67;;
1366;SDS011;16877;48.810;9.282;2023-05-07T01:29:31;4.00;;;2.93;;
1366;SDS011;16877;48.810;9.282;2023-05-07T01:32:00;4.30;;;2.43;;
1366;SDS011;16877;48.810;9.282;2023-05-07T01:34:28;3.60;;;2.60;;
1366;SDS011;16877;48.810;9.282;2023-05-07T01:36:59;3.27;;;2.50;;
1366;SDS011;16877;48.810;9.282;2023-05-07T01:39:28;3.83;;;2.53;;
1366;SDS011;16877;48.810;9.282;2023-05-07T01:41:58;3.10;;;2.50;;
1366;SDS011;16877;48.810;9.282;2023-05-07T01:44:26;2.87;;;1.90;;
1366;SDS011;16877;48.810;9.282;2023-05-07T01:46:54;3.03;;;2.60;;
1366;SDS011;16877;48.810;9.282;2023-05-07T01:49:24;3.03;;;2.60;;
1366;SDS011;16877;48.810;9.282;2023-05-07T01:51:52;3.63;;;2.60;;
1366;SDS011;16877;48.810;9.282;2023-05-07T01:54:24;3.47;;;2.20;;
1366;SDS011;16877;48.810;9.282;2023-05-07T01:56:52;3.73;;;2.57;;
1366;SDS011;16877;48.810;9.282;2023-05-07T01:59:21;4.97;;;2.27;;
1366;SDS011;16877;48.810;9.282;2023-05-07T02:01:48;4.07;;;2.50;;
1366;SDS011;16877;48.810;9.282;2023-05-07T02:04:16;4.10;;;2.87;;
1366;SDS011;16877;48.810;9.282;2023-05-07T02:06:44;4.10;;;3.07;;
1366;SDS011;16877;48.810;9.282;2023-05-07T02:09:11;4.20;;;2.80;;
1366;SDS011;16877;48.810;9.282;2023-05-07T02:11:40;3.03;;;2.10;;
1366;SDS011;16877;48.810;9.282;2023-05-07T02:14:07;3.27;;;2.43;;
1366;SDS011;16877;48.810;9.282;2023-05-07T02:16:36;3.60;;;2.57;;
1366;SDS011;16877;48.810;9.282;2023-05-07T02:19:03;4.50;;;2.50;;
1366;SDS011;16877;48.810;9.282;2023-05-07T02:21:31;3.07;;;2.27;;
1366;SDS011;16877;48.810;9.282;2023-05-07T02:23:58;4.07;;;2.63;;
1366;SDS011;16877;48.810;9.282;2023-05-07T02:26:26;3.30;;;2.20;;
1366;SDS011;16877;48.810;9.282;2023-05-07T02:28:53;3.57;;;2.43;;
1366;SDS011;16877;48.810;9.282;2023-05-07T02:31:21;3.83;;;2.40;;
1366;SDS011;16877;48.810;9.282;2023-05-07T02:33:50;3.20;;;2.10;;
1366;SDS011;16877;48.810;9.282;2023-05-07T02:36:17;2.90;;;2.23;;
1366;SDS011;16877;48.810;9.282;2023-05-07T02:38:45;3.70;;;2.27;;
1366;SDS011;16877;48.810;9.282;2023-05-07T02:41:13;3.40;;;2.53;;
1366;SDS011;16877;48.810;9.282;2023-05-07T02:43:40;3.20;;;2.40;;
1366;SDS011;16877;48.810;9.282;2023-05-07T02:46:08;3.07;;;2.17;;
1366;SDS011;16877;48.810;9.282;2023-05-07T02:48:35;3.40;;;2.40;;
1366;SDS011;16877;48.810;9.282;2023-05-07T02:51:05;3.33;;;2.60;;
1366;SDS011;16877;48.810;9.282;2023-05-07T02:53:33;3.27;;;2.30;;
1366;SDS011;16877;48.810;9.282;2023-05-07T02:56:02;4.20;;;2.00;;
1366;SDS011;16877;48.810;9.282;2023-05-07T02:58:30;3.63;;;2.20;;
1366;SDS011;16877;48.810;9.282;2023-05-07T03:00:58;3.03;;;1.90;;
1366;SDS011;16877;48.810;9.282;2023-05-07T03:03:25;6.80;;;2.20;;
1366;SDS011;16877;48.810;9.282;2023-05-07T03:05:53;3.77;;;2.10;;
1366;SDS011;16877;48.810;9.282;2023-05-07T03:08:22;3.43;;;2.20;;
1366;SDS011;16877;48.810;9.282;2023-05-07T03:10:51;3.40;;;2.43;;
1366;SDS011;16877;48.810;9.282;2023-05-07T03:13:18;3.00;;;2.27;;
1366;SDS011;16877;48.810;9.282;2023-05-07T03:15:46;3.40;;;2.30;;
1366;SDS011;16877;48.810;9.282;2023-05-07T03:18:14;4.63;;;2.70;;
1366;SDS011;16877;48.810;9.282;2023-05-07T03:20:42;2.90;;;1.97;;
1366;SDS011;16877;48.810;9.282;2023-05-07T03:23:09;4.67;;;2.27;;
1366;SDS011;16877;48.810;9.282;2023-05-07T03:25:39;3.03;;;2.13;;
1366;SDS011;16877;48.810;9.282;2023-05-07T03:28:06;2.83;;;2.17;;
1366;SDS011;16877;48.810;9.282;2023-05-07T03:30:34;3.23;;;2.27;;
1366;SDS011;16877;48.810;9.282;2023-05-07T03:33:01;3.10;;;2.00;;
1366;SDS011;16877;48.810;9.282;2023-05-07T03:35:29;2.97;;;2.23;;
1366;SDS011;16877;48.810;9.282;2023-05-07T03:38:00;3.40;;;2.43;;
1366;SDS011;16877;48.810;9.282;2023-05-07T03:40:28;2.80;;;2.10;;
1366;SDS011;16877;48.810;9.282;2023-05-07T03:43:01;2.70;;;1.70;;
1366;SDS011;16877;48.810;9.282;2023-05-07T03:45:29;8.93;;;2.60;;
1366;SDS011;16877;48.810;9.282;2023-05-07T03:47:56;3.20;;;2.10;;
1366;SDS011;16877;48.810;9.282;2023-05-07T03:50:38;2.67;;;1.97;;
1366;SDS011;16877;48.810;9.282;2023-05-07T03:53:06;2.67;;;1.70;;
1366;SDS011;16877;48.810;9.282;2023-05-07T03:55:34;4.30;;;2.13;;
1366;SDS011;16877;48.810;9.282;2023-05-07T03:58:03;3.03;;;2.03;;
1366;SDS011;16877;48.810;9.282;2023-05-07T04:00:30;2.90;;;2.13;;
1366;SDS011;16877;48.810;9.282;2023-05-07T04:03:03;2.77;;;2.00;;
1366;SDS011;16877;48.810;9.282;2023-05-07T04:05:30;3.37;;;2.20;;
1366;SDS011;16877;48.810;9.282;2023-05-07T04:07:57;4.40;;;2.43;;
1366;SDS011;16877;48.810;9.282;2023-05-07T04:10:26;3.07;;;2.00;;
1366;SDS011;16877;48.810;9.282;2023-05-07T04:12:54;2.60;;;1.90;;
1366;SDS011;16877;48.810;9.282;2023-05-07T04:15:23;2.90;;;1.80;;
1366;SDS011;16877;48.810;9.282;2023-05-07T04:17:51;2.47;;;1.87;;
1366;SDS011;16877;48.810;9.282;2023-05-07T04:20:19;3.53;;;2.10;;
1366;SDS011;16877;48.810;9.282;2023-05-07T04:22:47;2.70;;;1.80;;
1366;SDS011;16877;48.810;9.282;2023-05-07T04:25:15;3.20;;;2.00;;
1366;SDS011;16877;48.810;9.282;2023-05-07T04:27:44;3.67;;;1.87;;
1366;SDS011;16877;48.810;9.282;2023-05-07T04:30:12;2.70;;;1.60;;
1366;SDS011;16877;48.810;9.282;2023-05-07T04:32:42;3.10;;;1.77;;
1366;SDS011;16877;48.810;9.282;2023-05-07T04:35:09;2.83;;;1.80;;
1366;SDS011;16877;48.810;9.282;2023-05-07T04:37:38;3.07;;;2.17;;
1366;SDS011;16877;48.810;9.282;2023-05-07T04:40:06;4.20;;;1.97;;
1366;SDS011;16877;48.810;9.282;2023-05-07T04:42:35;3.73;;;2.17;;
1366;SDS011;16877;48.810;9.282;2023-05-07T04:45:02;3.30;;;2.13;;
1366;SDS011;16877;48.810;9.282;2023-05-07T04:47:31;2.83;;;2.00;;
1366;SDS011;16877;48.810;9.282;2023-05-07T04:50:00;3.60;;;1.83;;
1366;SDS011;16877;48.810;9.282;2023-05-07T04:52:28;2.50;;;1.70;;
1366;SDS011;16877;48.810;9.282;2023-05-07T04:54:56;3.50;;;2.10;;
1366;SDS011;16877;48.810;9.282;2023-05-07T04:57:25;2.97;;;1.97;;
1366;SDS011;16877;48.810;9.282;2023-05-07T04:59:52;2.27;;;1.73;;
1366;SDS011;16877;48.810;9.282;2023-05-07T05:02:19;2.90;;;2.00;;
1366;SDS011;16877;48.810;9.282;2023-05-07T05:04:47;3.60;;;1.73;;
1366;SDS011;16877;48.810;9.282;2023-05-07T05:07:16;2.93;;;1.90;;
1366;SDS011;16877;48.810;9.282;2023-05-07T05:09:44;2.53;;;1.60;;
1366;SDS011;16877;48.810;9.282;2023-05-07T05:12:11;3.40;;;1.70;;
1366;SDS011;16877;48.810;9.282;2023-05-07T05:14:38;2.90;;;1.80;;
1366;SDS011;16877;48.810;9.282;2023-05-07T05:17:06;3.40;;;1.70;;
1366;SDS011;16877;48.810;9.282;2023-05-07T05:19:33;3.37;;;2.30;;
1366;SDS011;16877;48.810;9.282;2023-05-07T05:22:01;3.20;;;1.83;;
1366;SDS011;16877;48.810;9.282;2023-05-07T05:24:32;2.90;;;1.63;;
1366;SDS011;16877;48.810;9.282;2023-05-07T05:27:00;3.23;;;2.53;;
1366;SDS011;16877;48.810;9.282;2023-05-07T05:29:28;3.43;;;2.03;;
1366;SDS011;16877;48.810;9.282;2023-05-07T05:31:56;2.40;;;1.70;;
1366;SDS011;16877;48.810;9.282;2023-05-07T05:34:24;3.40;;;2.07;;
1366;SDS011;16877;48.810;9.282;2023-05-07T05:36:52;3.83;;;2.20;;
1366;SDS011;16877;48.810;9.282;2023-05-07T05:39:20;2.63;;;1.83;;
1366;SDS011;16877;48.810;9.282;2023-05-07T05:41:50;4.30;;;2.00;;
1366;SDS011;16877;48.810;9.282;2023-05-07T05:44:18;3.80;;;2.03;;
1366;SDS011;16877;48.810;9.282;2023-05-07T05:46:45;3.07;;;2.43;;
1366;SDS011;16877;48.810;9.282;2023-05-07T05:49:14;3.47;;;1.90;;
1366;SDS011;16877;48.810;9.282;2023-05-07T05:51:42;3.20;;;2.20;;
1366;SDS011;16877;48.810;9.282;2023-05-07T05:54:10;3.33;;;2.23;;
1366;SDS011;16877;48.810;9.282;2023-05-07T05:56:38;2.80;;;1.80;;
1366;SDS011;16877;48.810;9.282;2023-05-07T05:59:07;3.80;;;2.00;;
1366;SDS011;16877;48.810;9.282;2023-05-07T06:01:35;4.27;;;2.10;;
1366;SDS011;16877;48.810;9.282;2023-05-07T06:04:02;3.10;;;2.10;;
1366;SDS011;16877;48.810;9.282;2023-05-07T06:06:30;2.77;;;1.60;;
1366;SDS011;16877;48.810;9.282;2023-05-07T06:09:12;2.50;;;1.80;;
1366;SDS011;16877;48.810;9.282;2023-05-07T06:11:40;3.70;;;1.97;;
1366;SDS011;16877;48.810;9.282;2023-05-07T06:14:09;4.83;;;1.70;;
1366;SDS011;16877;48.810;9.282;2023-05-07T06:16:37;2.50;;;1.67;;
1366;SDS011;16877;48.810;9.282;2023-05-07T06:19:04;2.40;;;1.77;;
1366;SDS011;16877;48.810;9.282;2023-05-07T06:21:32;2.67;;;1.60;;
1366;SDS011;16877;48.810;9.282;2023-05-07T06:24:00;2.70;;;2.07;;
1366;SDS011;16877;48.810;9.282;2023-05-07T06:26:27;3.37;;;2.10;;
1366;SDS011;16877;48.810;9.282;2023-05-07T06:28:56;2.90;;;1.80;;
1366;SDS011;16877;48.810;9.282;2023-05-07T06:31:28;3.63;;;2.20;;
1366;SDS011;16877;48.810;9.282;2023-05-07T06:33:56;3.30;;;2.10;;
1366;SDS011;16877;48.810;9.282;2023-05-07T06:36:23;3.20;;;2.00;;
1366;SDS011;16877;48.810;9.282;2023-05-07T06:38:51;3.63;;;2.20;;
1366;SDS011;16877;48.810;9.282;2023-05-07T06:41:20;2.77;;;1.80;;
1366;SDS011;16877;48.810;9.282;2023-05-07T06:43:47;2.40;;;1.70;;
1366;SDS011;16877;48.810;9.282;2023-05-07T06:46:15;2.83;;;1.80;;
1366;SDS011;16877;48.810;9.282;2023-05-07T06:48:44;2.60;;;1.73;;
1366;SDS011;16877;48.810;9.282;2023-05-07T06:51:12;3.93;;;2.10;;
1366;SDS011;16877;48.810;9.282;2023-05-07T06:53:39;2.90;;;1.83;;
1366;SDS011;16877;48.810;9.282;2023-05-07T06:56:07;3.63;;;1.90;;
1366;SDS011;16877;48.810;9.282;2023-05-07T06:58:38;3.70;;;2.33;;
1366;SDS011;16877;48.810;9.282;2023-05-07T07:01:06;5.07;;;2.00;;
1366;SDS011;16877;48.810;9.282;2023-05-07T07:03:33;3.17;;;2.27;;
1366;SDS011;16877;48.810;9.282;2023-05-07T07:06:03;3.20;;;1.97;;
1366;SDS011;16877;48.810;9.282;2023-05-07T07:08:30;3.53;;;2.20;;
1366;SDS011;16877;48.810;9.282;2023-05-07T07:10:58;2.87;;;2.17;;
1366;SDS011;16877;48.810;9.282;2023-05-07T07:13:26;3.60;;;2.37;;
1366;SDS011;16877;48.810;9.282;2023-05-07T07:15:54;4.70;;;2.50;;
1366;SDS011;16877;48.810;9.282;2023-05-07T07:18:21;3.50;;;2.07;;
1366;SDS011;16877;48.810;9.282;2023-05-07T07:20:49;4.13;;;2.57;;
1366;SDS011;16877;48.810;9.282;2023-05-07T07:23:18;4.40;;;2.50;;
1366;SDS011;16877;48.810;9.282;2023-05-07T07:25:46;3.83;;;1.97;;
1366;SDS011;16877;48.810;9.282;2023-05-07T07:28:14;2.60;;;1.80;;
1366;SDS011;16877;48.810;9.282;2023-05-07T07:30:41;2.57;;;1.77;;
1366;SDS011;16877;48.810;9.282;2023-05-07T07:33:09;3.27;;;2.43;;
1366;SDS011;16877;48.810;9.282;2023-05-07T07:35:36;2.47;;;1.63;;
1366;SDS011;16877;48.810;9.282;2023-05-07T07:38:04;3.00;;;1.70;;
1366;SDS011;16877;48.810;9.282;2023-05-07T07:40:35;2.90;;;1.60;;
1366;SDS011;16877;48.810;9.282;2023-05-07T07:43:02;3.13;;;1.70;;
1366;SDS011;16877;48.810;9.282;2023-05-07T07:45:31;2.60;;;1.70;;
1366;SDS011;16877;48.810;9.282;2023-05-07T07:47:59;3.10;;;1.80;;
1366;SDS011;16877;48.810;9.282;2023-05-07T07:50:28;2.60;;;1.77;;
1366;SDS011;16877;48.810;9.282;2023-05-07T07:52:55;2.40;;;1.70;;
1366;SDS011;16877;48.810;9.282;2023-05-07T07:55:24;2.80;;;1.77;;
1366;SDS011;16877;48.810;9.282;2023-05-07T07:57:54;2.30;;;1.70;;
1366;SDS011;16877;48.810;9.282;2023-05-07T08:00:21;2.60;;;1.50;;
1366;SDS011;16877;48.810;9.282;2023-05-07T08:02:49;3.17;;;1.50;;
1366;SDS011;16877;48.810;9.282;2023-05-07T08:05:16;2.67;;;1.70;;
1366;SDS011;16877;48.810;9.282;2023-05-07T08:07:45;3.27;;;1.40;;
1366;SDS011;16877;48.810;9.282;2023-05-07T08:10:16;2.20;;;1.30;;
1366;SDS011;16877;48.810;9.282;2023-05-07T08:12:46;2.00;;;1.20;;
1366;SDS011;16877;48.810;9.282;2023-05-07T08:15:15;2.93;;;1.60;;
1366;SDS011;16877;48.810;9.282;2023-05-07T08:17:43;2.50;;;1.50;;
1366;SDS011;16877;48.810;9.282;2023-05-07T08:20:11;2.70;;;1.73;;
1366;SDS011;16877;48.810;9.282;2023-05-07T08:22:39;2.97;;;1.70;;
1366;SDS011;16877;48.810;9.282;2023-05-07T08:25:06;2.97;;;1.90;;
1366;SDS011;16877;48.810;9.282;2023-05-07T08:27:35;4.37;;;1.70;;
1366;SDS011;16877;48.810;9.282;2023-05-07T08:30:02;2.80;;;1.57;;
1366;SDS011;16877;48.810;9.282;2023-05-07T08:32:32;2.90;;;2.03;;
1366;SDS011;16877;48.810;9.282;2023-05-07T08:34:59;3.50;;;1.53;;
1366;SDS011;16877;48.810;9.282;2023-05-07T08:37:27;2.27;;;1.30;;
1366;SDS011;16877;48.810;9.282;2023-05-07T08:39:54;3.70;;;1.77;;
1366;SDS011;16877;48.810;9.282;2023-05-07T08:42:22;2.43;;;1.57;;
1366;SDS011;16877;48.810;9.282;2023-05-07T08:44:50;2.50;;;1.50;;
1366;SDS011;16877;48.810;9.282;2023-05-07T08:47:22;2.30;;;1.70;;
1366;SDS011;16877;48.810;9.282;2023-05-07T08:50:11;7.43;;;1.90;;
1366;SDS011;16877;48.810;9.282;2023-05-07T08:52:39;2.93;;;1.83;;
1366;SDS011;16877;48.810;9.282;2023-05-07T08:55:07;2.53;;;1.33;;
1366;SDS011;16877;48.810;9.282;2023-05-07T08:57:35;3.20;;;1.93;;
1366;SDS011;16877;48.810;9.282;2023-05-07T09:00:03;2.57;;;1.77;;
1366;SDS011;16877;48.810;9.282;2023-05-07T09:02:32;2.87;;;1.80;;
1366;SDS011;16877;48.810;9.282;2023-05-07T09:04:59;4.30;;;1.90;;
1366;SDS011;16877;48.810;9.282;2023-05-07T09:07:28;2.40;;;1.87;;
1366;SDS011;16877;48.810;9.282;2023-05-07T09:09:57;2.20;;;1.37;;
1366;SDS011;16877;48.810;9.282;2023-05-07T09:12:24;2.73;;;2.00;;
1366;SDS011;16877;48.810;9.282;2023-05-07T09:14:52;3.20;;;1.60;;
1366;SDS011;16877;48.810;9.282;2023-05-07T09:17:19;3.23;;;2.03;;
1366;SDS011;16877;48.810;9.282;2023-05-07T09:19:47;2.70;;;1.80;;
1366;SDS011;16877;48.810;9.282;2023-05-07T09:22:14;2.80;;;1.80;;
1366;SDS011;16877;48.810;9.282;2023-05-07T09:24:43;2.80;;;1.60;;
1366;SDS011;16877;48.810;9.282;2023-05-07T09:27:14;3.30;;;1.70;;
1366;SDS011;16877;48.810;9.282;2023-05-07T09:29:42;3.50;;;1.73;;
1366;SDS011;16877;48.810;9.282;2023-05-07T09:32:10;3.23;;;1.97;;
1366;SDS011;16877;48.810;9.282;2023-05-07T09:34:38;4.10;;;1.70;;
1366;SDS011;16877;48.810;9.282;2023-05-07T09:37:06;3.33;;;1.60;;
1366;SDS011;16877;48.810;9.282;2023-05-07T09:39:40;3.60;;;1.90;;
1366;SDS011;16877;48.810;9.282;2023-05-07T09:42:09;3.93;;;2.27;;
1366;SDS011;16877;48.810;9.282;2023-05-07T09:44:37;3.57;;;1.80;;
1366;SDS011;16877;48.810;9.282;2023-05-07T09:47:05;2.30;;;1.50;;
1366;SDS011;16877;48.810;9.282;2023-05-07T09:49:34;2.77;;;1.40;;
1366;SDS011;16877;48.810;9.282;2023-05-07T09:52:02;2.23;;;1.40;;
1366;SDS011;16877;48.810;9.282;2023-05-07T09:54:33;3.00;;;1.70;;
1366;SDS011;16877;48.810;9.282;2023-05-07T09:57:03;2.93;;;2.10;;
1366;SDS011;16877;48.810;9.282;2023-05-07T09:59:33;3.80;;;2.37;;
1366;SDS011;16877;48.810;9.282;2023-05-07T10:02:03;2.70;;;1.80;;
1366;SDS011;16877;48.810;9.282;2023-05-07T10:04:31;2.90;;;1.63;;
1366;SDS011;16877;48.810;9.282;2023-05-07T10:07:01;3.07;;;1.93;;
1366;SDS011;16877;48.810;9.282;2023-05-07T10:09:30;3.03;;;1.53;;
1366;SDS011;16877;48.810;9.282;2023-05-07T10:11:58;5.50;;;2.07;;
1366;SDS011;16877;48.810;9.282;2023-05-07T10:14:26;2.57;;;1.60;;
1366;SDS011;16877;48.810;9.282;2023-05-07T10:16:57;2.70;;;1.67;;
1366;SDS011;16877;48.810;9.282;2023-05-07T10:19:26;2.50;;;1.40;;
1366;SDS011;16877;48.810;9.282;2023-05-07T10:21:54;2.33;;;1.23;;
1366;SDS011;16877;48.810;9.282;2023-05-07T10:24:25;2.20;;;1.20;;
1366;SDS011;16877;48.810;9.282;2023-05-07T10:26:53;2.87;;;1.47;;
1366;SDS011;16877;48.810;9.282;2023-05-07T10:29:25;2.57;;;1.40;;
1366;SDS011;16877;48.810;9.282;2023-05-07T10:32:05;3.30;;;1.47;;
1366;SDS011;16877;48.810;9.282;2023-05-07T10:34:54;2.53;;;1.20;;
1366;SDS011;16877;48.810;9.282;2023-05-07T10:37:25;3.03;;;1.63;;
1366;SDS011;16877;48.810;9.282;2023-05-07T10:39:53;2.90;;;1.80;;
1366;SDS011;16877;48.810;9.282;2023-05-07T10:42:20;2.40;;;1.20;;
1366;SDS011;16877;48.810;9.282;2023-05-07T10:44:48;2.43;;;1.50;;
1366;SDS011;16877;48.810;9.282;2023-05-07T10:47:17;2.40;;;1.50;;
1366;SDS011;16877;48.810;9.282;2023-05-07T10:55:49;2.83;;;1.57;;
1366;SDS011;16877;48.810;9.282;2023-05-07T10:58:23;2.83;;;1.73;;
1366;SDS011;16877;48.810;9.282;2023-05-07T11:00:55;2.60;;;1.57;;
1366;SDS011;16877;48.810;9.282;2023-05-07T11:03:25;3.27;;;1.80;;
1366;SDS011;16877;48.810;9.282;2023-05-07T11:08:52;2.40;;;1.40;;
1366;SDS011;16877;48.810;9.282;2023-05-07T11:14:13;2.40;;;1.30;;
1366;SDS011;16877;48.810;9.282;2023-05-07T11:16:41;3.70;;;1.57;;
1366;SDS011;16877;48.810;9.282;2023-05-07T11:19:11;2.27;;;1.20;;
1366;SDS011;16877;48.810;9.282;2023-05-07T11:21:39;2.70;;;1.57;;
1366;SDS011;16877;48.810;9.282;2023-05-07T11:24:07;2.80;;;1.50;;
1366;SDS011;16877;48.810;9.282;2023-05-07T11:26:42;2.40;;;1.30;;
1366;SDS011;16877;48.810;9.282;2023-05-07T11:29:11;2.87;;;1.53;;
1366;SDS011;16877;48.810;9.282;2023-05-07T11:31:40;2.70;;;1.70;;
1366;SDS011;16877;48.810;9.282;2023-05-07T11:34:07;2.60;;;1.50;;
1366;SDS011;16877;48.810;9.282;2023-05-07T11:36:41;3.70;;;1.37;;
1366;SDS011;16877;48.810;9.282;2023-05-07T11:39:29;2.90;;;1.47;;
1366;SDS011;16877;48.810;9.282;2023-05-07T11:41:58;2.53;;;1.60;;
1366;SDS011;16877;48.810;9.282;2023-05-07T11:44:25;2.70;;;1.40;;
1366;SDS011;16877;48.810;9.282;2023-05-07T11:47:07;2.53;;;1.60;;
1366;SDS011;16877;48.810;9.282;2023-05-07T11:49:36;2.50;;;1.33;;
1366;SDS011;16877;48.810;9.282;2023-05-07T11:52:05;2.33;;;1.37;;
1366;SDS011;16877;48.810;9.282;2023-05-07T11:54:35;2.63;;;1.43;;
1366;SDS011;16877;48.810;9.282;2023-05-07T11:57:03;2.63;;;1.60;;
1366;SDS011;16877;48.810;9.282;2023-05-07T11:59:34;2.43;;;1.40;;
1366;SDS011;16877;48.810;9.282;2023-05-07T12:02:05;2.77;;;1.40;;
1366;SDS011;16877;48.810;9.282;2023-05-07T12:04:32;2.80;;;1.50;;
1366;SDS011;16877;48.810;9.282;2023-05-07T12:07:00;2.60;;;1.73;;
1366;SDS011;16877;48.810;9.282;2023-05-07T12:09:29;2.60;;;1.30;;
1366;SDS011;16877;48.810;9.282;2023-05-07T12:12:02;2.50;;;1.23;;
1366;SDS011;16877;48.810;9.282;2023-05-07T12:14:30;2.53;;;1.30;;
1366;SDS011;16877;48.810;9.282;2023-05-07T12:16:57;2.23;;;1.40;;
1366;SDS011;16877;48.810;9.282;2023-05-07T12:19:27;3.00;;;1.57;;
1366;SDS011;16877;48.810;9.282;2023-05-07T12:21:55;3.73;;;1.40;;
1366;SDS011;16877;48.810;9.282;2023-05-07T12:24:23;2.57;;;1.57;;
1366;SDS011;16877;48.810;9.282;2023-05-07T12:26:52;2.60;;;1.27;;
1366;SDS011;16877;48.810;9.282;2023-05-07T12:29:21;2.87;;;1.70;;
1366;SDS011;16877;48.810;9.282;2023-05-07T12:31:48;2.50;;;1.50;;
1366;SDS011;16877;48.810;9.282;2023-05-07T12:34:16;2.80;;;1.87;;
1366;SDS011;16877;48.810;9.282;2023-05-07T12:36:44;2.77;;;1.57;;
1366;SDS011;16877;48.810;9.282;2023-05-07T12:39:11;4.10;;;1.73;;
1366;SDS011;16877;48.810;9.282;2023-05-07T12:41:55;2.57;;;1.87;;
1366;SDS011;16877;48.810;9.282;2023-05-07T12:44:24;4.10;;;2.20;;
1366;SDS011;16877;48.810;9.282;2023-05-07T12:46:51;2.77;;;1.73;;
1366;SDS011;16877;48.810;9.282;2023-05-07T12:49:19;2.83;;;1.80;;
1366;SDS011;16877;48.810;9.282;2023-05-07T12:51:46;2.60;;;1.80;;
1366;SDS011;16877;48.810;9.282;2023-05-07T12:54:14;2.83;;;1.80;;
1366;SDS011;16877;48.810;9.282;2023-05-07T12:57:01;2.27;;;1.33;;
1366;SDS011;16877;48.810;9.282;2023-05-07T12:59:32;2.70;;;1.43;;
1366;SDS011;16877;48.810;9.282;2023-05-07T13:02:01;2.30;;;1.10;;
1366;SDS011;16877;48.810;9.282;2023-05-07T13:04:28;2.80;;;1.40;;
1366;SDS011;16877;48.810;9.282;2023-05-07T13:06:56;4.67;;;1.33;;
1366;SDS011;16877;48.810;9.282;2023-05-07T13:09:23;2.30;;;1.23;;
1366;SDS011;16877;48.810;9.282;2023-05-07T13:11:50;2.47;;;1.20;;
1366;SDS011;16877;48.810;9.282;2023-05-07T13:14:19;2.47;;;1.13;;
1366;SDS011;16877;48.810;9.282;2023-05-07T13:16:47;4.70;;;1.70;;
1366;SDS011;16877;48.810;9.282;2023-05-07T13:19:14;2.83;;;1.70;;
1366;SDS011;16877;48.810;9.282;2023-05-07T13:21:42;3.53;;;1.73;;
1366;SDS011;16877;48.810;9.282;2023-05-07T13:24:09;3.27;;;1.60;;
1366;SDS011;16877;48.810;9.282;2023-05-07T13:26:37;2.63;;;1.63;;
1366;SDS011;16877;48.810;9.282;2023-05-07T13:29:05;4.37;;;1.47;;
1366;SDS011;16877;48.810;9.282;2023-05-07T13:31:35;2.90;;;1.40;;
1366;SDS011;16877;48.810;9.282;2023-05-07T13:34:02;2.53;;;1.30;;
1366;SDS011;16877;48.810;9.282;2023-05-07T13:36:30;2.63;;;1.20;;
1366;SDS011;16877;48.810;9.282;2023-05-07T13:39:00;5.07;;;1.23;;
1366;SDS011;16877;48.810;9.282;2023-05-07T13:41:28;3.30;;;1.30;;
1366;SDS011;16877;48.810;9.282;2023-05-07T13:43:56;2.50;;;1.00;;
1366;SDS011;16877;48.810;9.282;2023-05-07T13:46:23;3.23;;;0.90;;
1366;SDS011;16877;48.810;9.282;2023-05-07T13:48:53;2.90;;;0.90;;
1366;SDS011;16877;48.810;9.282;2023-05-07T13:51:20;2.73;;;0.90;;
1366;SDS011;16877;48.810;9.282;2023-05-07T13:53:49;2.47;;;0.80;;
1366;SDS011;16877;48.810;9.282;2023-05-07T13:56:17;2.20;;;0.90;;
1366;SDS011;16877;48.810;9.282;2023-05-07T13:58:45;1.60;;;0.70;;
1366;SDS011;16877;48.810;9.282;2023-05-07T14:01:12;2.47;;;0.90;;
1366;SDS011;16877;48.810;9.282;2023-05-07T14:03:40;2.07;;;0.90;;
1366;SDS011;16877;48.810;9.282;2023-05-07T14:06:08;2.00;;;0.97;;
1366;SDS011;16877;48.810;9.282;2023-05-07T14:08:36;2.03;;;0.70;;
1366;SDS011;16877;48.810;9.282;2023-05-07T14:11:03;2.37;;;0.83;;
1366;SDS011;16877;48.810;9.282;2023-05-07T14:13:31;2.57;;;1.00;;
1366;SDS011;16877;48.810;9.282;2023-05-07T14:15:59;2.83;;;0.93;;
1366;SDS011;16877;48.810;9.282;2023-05-07T14:18:27;2.73;;;1.37;;
1366;SDS011;16877;48.810;9.282;2023-05-07T14:20:54;6.10;;;1.60;;
1366;SDS011;16877;48.810;9.282;2023-05-07T14:23:23;2.80;;;1.43;;
1366;SDS011;16877;48.810;9.282;2023-05-07T14:25:51;2.97;;;1.50;;
1366;SDS011;16877;48.810;9.282;2023-05-07T14:28:18;3.37;;;1.97;;
1366;SDS011;16877;48.810;9.282;2023-05-07T14:30:46;4.73;;;1.73;;
1366;SDS011;16877;48.810;9.282;2023-05-07T14:33:14;3.17;;;1.40;;
1366;SDS011;16877;48.810;9.282;2023-05-07T14:35:42;3.97;;;1.60;;
1366;SDS011;16877;48.810;9.282;2023-05-07T14:38:13;2.73;;;1.40;;
1366;SDS011;16877;48.810;9.282;2023-05-07T14:40:42;2.83;;;1.60;;
1366;SDS011;16877;48.810;9.282;2023-05-07T14:43:10;3.50;;;1.97;;
1366;SDS011;16877;48.810;9.282;2023-05-07T14:45:37;3.10;;;1.67;;
1366;SDS011;16877;48.810;9.282;2023-05-07T14:48:04;4.00;;;1.77;;
1366;SDS011;16877;48.810;9.282;2023-05-07T14:50:34;3.20;;;1.53;;
1366;SDS011;16877;48.810;9.282;2023-05-07T14:53:01;2.97;;;1.43;;
1366;SDS011;16877;48.810;9.282;2023-05-07T14:55:29;4.90;;;1.97;;
1366;SDS011;16877;48.810;9.282;2023-05-07T14:57:58;2.27;;;1.60;;
1366;SDS011;16877;48.810;9.282;2023-05-07T15:00:25;2.73;;;1.80;;
1366;SDS011;16877;48.810;9.282;2023-05-07T15:02:53;3.03;;;1.40;;
1366;SDS011;16877;48.810;9.282;2023-05-07T15:05:25;2.20;;;1.20;;
1366;SDS011;16877;48.810;9.282;2023-05-07T15:07:53;2.37;;;1.33;;
1366;SDS011;16877;48.810;9.282;2023-05-07T15:10:21;3.50;;;1.20;;
1366;SDS011;16877;48.810;9.282;2023-05-07T15:12:48;2.40;;;1.50;;
1366;SDS011;16877;48.810;9.282;2023-05-07T15:15:17;4.40;;;2.00;;
1366;SDS011;16877;48.810;9.282;2023-05-07T15:17:45;2.50;;;1.43;;
1366;SDS011;16877;48.810;9.282;2023-05-07T15:20:12;2.50;;;1.50;;